createdAt,value
2018-10-18T00:01:17.965Z,18.37
2018-10-18T00:03:44.310Z,18.33
2018-10-18T00:06:10.696Z,18.35
2018-10-18T00:08:37.001Z,18.35
2018-10-18T00:11:03.311Z,18.32
2018-10-18T00:13:29.660Z,18.25
2018-10-18T00:15:55.962Z,18.25
2018-10-18T00:18:22.313Z,18.24
2018-10-18T00:20:48.647Z,18.22
2018-10-18T00:23:15.009Z,18.24
2018-10-18T00:25:41.304Z,18.25
2018-10-18T00:28:07.627Z,18.23
2018-10-18T00:30:33.944Z,18.22
2018-10-18T00:33:00.251Z,18.18
2018-10-18T00:35:26.556Z,18.15
2018-10-18T00:37:52.931Z,18.15
2018-10-18T00:40:19.189Z,18.15
2018-10-18T00:42:45.488Z,18.14
2018-10-18T00:45:11.823Z,18.13
2018-10-18T00:47:38.170Z,18.11
2018-10-18T00:50:04.524Z,18.11
2018-10-18T00:52:30.838Z,18.09
2018-10-18T00:54:57.141Z,18.08
2018-10-18T00:57:23.479Z,18.03
2018-10-18T00:59:49.779Z,18.01
2018-10-18T01:02:16.167Z,17.98
2018-10-18T01:04:42.417Z,18.00
2018-10-18T01:07:08.730Z,17.98
2018-10-18T01:09:35.069Z,18.02
2018-10-18T01:12:01.394Z,18.03
2018-10-18T01:14:27.673Z,17.96
2018-10-18T01:16:54.004Z,17.96
2018-10-18T01:19:20.371Z,17.95
2018-10-18T01:21:46.703Z,17.95
2018-10-18T01:24:13.115Z,17.90
2018-10-18T01:26:39.304Z,17.86
2018-10-18T01:29:05.631Z,17.84
2018-10-18T01:31:31.932Z,17.86
2018-10-18T01:33:58.240Z,17.85
2018-10-18T01:36:24.637Z,17.81
2018-10-18T01:38:50.942Z,17.80
2018-10-18T01:41:17.274Z,17.76
2018-10-18T01:43:43.579Z,17.72
2018-10-18T01:46:09.911Z,17.73
2018-10-18T01:48:36.287Z,17.74
2018-10-18T01:51:02.617Z,17.74
2018-10-18T01:53:28.913Z,17.70
2018-10-18T01:55:55.259Z,17.66
2018-10-18T01:58:21.558Z,17.62
2018-10-18T02:00:47.857Z,17.63
2018-10-18T02:03:14.232Z,17.62
2018-10-18T02:05:40.531Z,17.62
2018-10-18T02:08:06.928Z,17.56
2018-10-18T02:10:33.161Z,17.54
2018-10-18T02:12:59.469Z,17.57
2018-10-18T02:15:25.764Z,17.56
2018-10-18T02:17:52.182Z,17.53
2018-10-18T02:20:18.436Z,17.50
2018-10-18T02:22:44.778Z,17.55
2018-10-18T02:25:11.133Z,17.48
2018-10-18T02:27:37.415Z,17.47
2018-10-18T02:30:07.668Z,17.43
2018-10-18T02:32:33.925Z,17.42
2018-10-18T02:35:00.254Z,17.39
2018-10-18T02:37:26.601Z,17.37
2018-10-18T02:39:52.921Z,17.37
2018-10-18T02:42:19.287Z,17.38
2018-10-18T02:44:45.569Z,17.39
2018-10-18T02:47:11.894Z,17.37
2018-10-18T02:49:38.213Z,17.35
2018-10-18T02:52:04.549Z,17.35
2018-10-18T02:54:30.879Z,17.35
2018-10-18T02:56:57.217Z,17.35
2018-10-18T02:59:23.566Z,17.32
2018-10-18T03:01:49.865Z,17.28
2018-10-18T03:04:16.171Z,17.23
2018-10-18T03:06:42.499Z,17.21
2018-10-18T03:09:08.833Z,17.20
2018-10-18T03:11:35.203Z,17.16
2018-10-18T03:14:01.541Z,17.10
2018-10-18T03:16:27.868Z,17.09
2018-10-18T03:18:54.175Z,17.07
2018-10-18T03:21:20.521Z,16.85
2018-10-18T03:23:46.850Z,16.95
2018-10-18T03:26:13.194Z,16.95
2018-10-18T03:28:39.507Z,16.92
2018-10-18T03:31:05.821Z,16.88
2018-10-18T03:33:32.120Z,16.88
2018-10-18T03:35:58.475Z,16.88
2018-10-18T03:38:24.781Z,16.88
2018-10-18T03:40:51.135Z,16.88
2018-10-18T03:43:17.456Z,16.86
2018-10-18T03:45:43.817Z,16.83
2018-10-18T03:48:10.150Z,16.78
2018-10-18T03:50:36.395Z,16.94
2018-10-18T03:53:02.743Z,17.15
2018-10-18T03:55:29.050Z,17.34
2018-10-18T03:57:55.340Z,17.46
2018-10-18T04:00:21.761Z,17.53
2018-10-18T04:02:47.996Z,17.59
2018-10-18T04:05:14.307Z,17.63
2018-10-18T04:07:40.670Z,17.64
2018-10-18T04:10:06.982Z,17.64
2018-10-18T04:12:33.365Z,17.61
2018-10-18T04:14:59.639Z,17.64
2018-10-18T04:17:25.984Z,17.66
2018-10-18T04:19:52.287Z,17.71
2018-10-18T04:22:18.620Z,17.71
2018-10-18T04:24:44.969Z,17.68
2018-10-18T04:27:11.301Z,17.70
2018-10-18T04:29:37.639Z,17.71
2018-10-18T04:32:03.942Z,17.72
2018-10-18T04:34:30.264Z,17.69
2018-10-18T04:36:56.572Z,17.66
2018-10-18T04:39:22.889Z,17.63
2018-10-18T04:41:49.237Z,17.60
2018-10-18T04:44:15.563Z,17.56
2018-10-18T04:46:41.884Z,17.57
2018-10-18T04:49:08.273Z,17.54
2018-10-18T04:51:34.560Z,17.55
2018-10-18T04:54:00.902Z,17.56
2018-10-18T04:56:27.229Z,17.56
2018-10-18T04:58:53.553Z,17.58
2018-10-18T05:01:19.986Z,17.58
2018-10-18T05:03:46.156Z,17.58
2018-10-18T05:06:12.490Z,17.57
2018-10-18T05:08:38.800Z,17.58
2018-10-18T05:11:05.146Z,17.57
2018-10-18T05:13:31.461Z,17.57
2018-10-18T05:15:57.808Z,17.58
2018-10-18T05:18:24.107Z,17.60
2018-10-18T05:20:50.399Z,17.61
2018-10-18T05:23:16.725Z,17.62
2018-10-18T05:25:43.101Z,17.62
2018-10-18T05:28:09.425Z,17.62
2018-10-18T05:30:35.745Z,17.63
2018-10-18T05:33:02.056Z,17.66
2018-10-18T05:35:28.367Z,17.71
2018-10-18T05:37:54.691Z,17.73
2018-10-18T05:40:21.017Z,17.74
2018-10-18T05:42:47.345Z,17.78
2018-10-18T05:45:13.651Z,17.82
2018-10-18T05:47:39.955Z,17.84
2018-10-18T05:50:06.260Z,17.88
2018-10-18T05:52:32.564Z,17.91
2018-10-18T05:54:58.896Z,17.96
2018-10-18T05:57:25.210Z,17.99
2018-10-18T05:59:51.547Z,18.06
2018-10-18T06:02:17.851Z,18.10
2018-10-18T06:04:44.148Z,18.12
2018-10-18T06:07:10.574Z,18.16
2018-10-18T06:09:36.752Z,18.20
2018-10-18T06:12:03.053Z,18.25
2018-10-18T06:14:29.355Z,18.29
2018-10-18T06:16:55.713Z,18.30
2018-10-18T06:19:22.041Z,18.39
2018-10-18T06:21:48.380Z,18.43
2018-10-18T06:24:14.710Z,18.47
2018-10-18T06:26:41.036Z,18.52
2018-10-18T06:29:07.410Z,18.56
2018-10-18T06:31:33.646Z,18.60
2018-10-18T06:33:59.973Z,18.66
2018-10-18T06:36:26.271Z,18.71
2018-10-18T06:38:52.598Z,18.73
2018-10-18T06:41:18.967Z,18.74
2018-10-18T06:43:45.199Z,18.77
2018-10-18T06:46:11.574Z,18.80
2018-10-18T06:48:37.899Z,18.86
2018-10-18T06:51:04.205Z,18.88
2018-10-18T06:53:30.557Z,18.89
2018-10-18T06:55:56.860Z,18.93
2018-10-18T06:58:23.189Z,19.00
2018-10-18T07:00:49.516Z,19.04
2018-10-18T07:03:15.816Z,19.08
2018-10-18T07:05:42.149Z,19.14
2018-10-18T07:08:08.483Z,19.21
2018-10-18T07:10:34.780Z,19.28
2018-10-18T07:13:01.103Z,19.34
2018-10-18T07:15:27.431Z,19.41
2018-10-18T07:17:53.742Z,19.48
2018-10-18T07:20:20.041Z,19.54
2018-10-18T07:22:46.345Z,19.61
2018-10-18T07:25:12.663Z,19.67
2018-10-18T07:27:38.982Z,19.77
2018-10-18T07:30:05.325Z,19.86
2018-10-18T07:32:31.584Z,19.95
2018-10-18T07:34:57.965Z,20.08
2018-10-18T07:37:24.252Z,20.15
2018-10-18T07:39:50.581Z,20.21
2018-10-18T07:42:16.978Z,20.26
2018-10-18T07:44:43.216Z,20.32
2018-10-18T07:47:09.541Z,20.40
2018-10-18T07:49:35.872Z,20.47
2018-10-18T07:52:02.172Z,20.55
2018-10-18T07:54:28.481Z,20.65
2018-10-18T07:56:54.781Z,20.72
2018-10-18T07:59:21.110Z,20.83
2018-10-18T08:01:47.418Z,20.90
2018-10-18T08:04:13.752Z,21.00
2018-10-18T08:06:40.053Z,21.14
2018-10-18T08:09:06.366Z,21.23
2018-10-18T08:11:32.695Z,21.33
2018-10-18T08:13:59.021Z,21.40
2018-10-18T08:16:25.332Z,21.47
2018-10-18T08:18:51.660Z,21.55
2018-10-18T08:21:17.942Z,21.65
2018-10-18T08:23:44.270Z,21.73
2018-10-18T08:26:10.568Z,21.85
2018-10-18T08:28:36.896Z,22.00
2018-10-18T08:31:03.265Z,22.13
2018-10-18T08:33:29.587Z,22.19
2018-10-18T08:35:55.928Z,22.29
2018-10-18T08:38:22.273Z,22.36
2018-10-18T08:40:48.645Z,22.39
2018-10-18T08:43:14.982Z,22.42
2018-10-18T08:45:41.248Z,22.41
2018-10-18T08:48:07.576Z,22.42
2018-10-18T08:50:33.945Z,22.45
2018-10-18T08:53:00.249Z,22.54
2018-10-18T08:55:26.607Z,22.68
2018-10-18T08:57:52.911Z,22.81
2018-10-18T09:00:19.225Z,22.88
2018-10-18T09:02:45.569Z,22.94
2018-10-18T09:05:11.874Z,23.00
2018-10-18T09:07:38.181Z,23.06
2018-10-18T09:10:04.717Z,23.12
2018-10-18T09:12:30.805Z,23.12
2018-10-18T09:14:57.108Z,23.13
2018-10-18T09:17:23.448Z,23.15
2018-10-18T09:19:49.784Z,23.20
2018-10-18T09:22:16.115Z,23.26
2018-10-18T09:24:42.480Z,23.32
2018-10-18T09:27:08.857Z,23.46
2018-10-18T09:29:35.214Z,23.55
2018-10-18T09:32:01.544Z,23.65
2018-10-18T09:34:27.912Z,23.74
2018-10-18T09:36:54.289Z,23.81
2018-10-18T09:39:20.653Z,23.87
2018-10-18T09:41:46.952Z,23.92
2018-10-18T09:44:13.322Z,23.93
2018-10-18T09:46:39.643Z,23.97
2018-10-18T09:49:06.080Z,24.04
2018-10-18T09:51:32.319Z,24.05
2018-10-18T09:53:58.661Z,24.13
2018-10-18T09:56:24.968Z,24.26
2018-10-18T09:58:51.273Z,24.34
2018-10-18T10:01:17.733Z,24.25
2018-10-18T10:03:43.924Z,24.21
2018-10-18T10:06:10.234Z,24.16
2018-10-18T10:08:36.564Z,24.06
2018-10-18T10:11:02.895Z,24.00
2018-10-18T10:13:29.332Z,24.07
2018-10-18T10:15:55.507Z,24.03
2018-10-18T10:18:21.928Z,24.00
2018-10-18T10:20:48.127Z,23.96
2018-10-18T10:23:14.523Z,23.93
2018-10-18T10:25:40.815Z,23.89
2018-10-18T10:28:07.173Z,23.88
2018-10-18T10:30:33.485Z,23.87
2018-10-18T10:32:59.842Z,23.85
2018-10-18T10:35:26.194Z,23.91
2018-10-18T10:37:52.496Z,23.99
2018-10-18T10:40:18.891Z,24.00
2018-10-18T10:42:45.212Z,23.98
2018-10-18T10:45:11.628Z,24.02
2018-10-18T10:47:37.880Z,24.06
2018-10-18T10:50:04.237Z,24.11
2018-10-18T10:52:30.599Z,24.11
2018-10-18T10:54:56.927Z,24.15
2018-10-18T10:57:23.228Z,24.18
2018-10-18T10:59:49.557Z,24.19
2018-10-18T11:02:15.925Z,24.19
2018-10-18T11:04:42.172Z,24.20
2018-10-18T11:07:08.480Z,24.21
2018-10-18T11:09:34.890Z,24.27
2018-10-18T11:12:01.256Z,24.28
2018-10-18T11:14:27.539Z,24.31
2018-10-18T11:16:53.903Z,24.34
2018-10-18T11:19:20.168Z,24.40
2018-10-18T11:21:46.488Z,24.46
2018-10-18T11:24:12.902Z,24.47
2018-10-18T11:26:39.136Z,24.49
2018-10-18T11:29:05.480Z,24.47
2018-10-18T11:31:31.784Z,24.48
2018-10-18T11:33:58.153Z,24.49
2018-10-18T11:36:24.479Z,24.50
2018-10-18T11:38:50.808Z,24.47
2018-10-18T11:41:17.133Z,24.49
2018-10-18T11:43:43.457Z,24.53
2018-10-18T11:46:09.776Z,24.52
2018-10-18T11:48:36.110Z,24.54
2018-10-18T11:51:02.439Z,24.51
2018-10-18T11:53:28.779Z,24.49
2018-10-18T11:55:55.115Z,24.46
2018-10-18T11:58:21.423Z,24.39
2018-10-18T12:00:47.804Z,24.47
2018-10-18T12:03:14.200Z,24.43
2018-10-18T12:05:40.466Z,24.42
2018-10-18T12:08:06.804Z,24.49
2018-10-18T12:10:33.112Z,24.55
2018-10-18T12:12:59.432Z,24.57
2018-10-18T12:15:25.762Z,24.51
2018-10-18T12:17:52.083Z,24.58
2018-10-18T12:20:18.470Z,24.60
2018-10-18T12:22:44.783Z,24.64
2018-10-18T12:25:11.105Z,24.66
2018-10-18T12:27:37.441Z,24.65
2018-10-18T12:30:03.752Z,24.64
2018-10-18T12:32:30.081Z,24.62
2018-10-18T12:34:56.508Z,24.61
2018-10-18T12:37:22.769Z,24.63
2018-10-18T12:39:49.095Z,24.64
2018-10-18T12:42:15.413Z,24.62
2018-10-18T12:44:41.734Z,24.62
2018-10-18T12:47:08.067Z,24.60
2018-10-18T12:49:34.385Z,24.56
2018-10-18T12:52:00.702Z,24.55
2018-10-18T12:54:27.100Z,24.56
2018-10-18T12:56:53.429Z,24.51
2018-10-18T12:59:19.769Z,24.51
2018-10-18T13:01:46.117Z,24.53
2018-10-18T13:04:12.418Z,24.53
2018-10-18T13:06:38.749Z,24.51
2018-10-18T13:09:05.126Z,24.49
2018-10-18T13:11:31.418Z,24.51
2018-10-18T13:13:57.804Z,24.52
2018-10-18T13:16:24.126Z,24.49
2018-10-18T13:18:50.448Z,24.43
2018-10-18T13:21:16.816Z,24.44
2018-10-18T13:23:43.128Z,24.43
2018-10-18T13:26:09.489Z,24.43
2018-10-18T13:28:35.784Z,24.44
2018-10-18T13:31:02.113Z,24.43
2018-10-18T13:33:28.453Z,24.42
2018-10-18T13:35:54.776Z,24.39
2018-10-18T13:38:21.098Z,24.37
2018-10-18T13:40:47.490Z,24.35
2018-10-18T13:43:13.752Z,24.34
2018-10-18T13:45:40.073Z,24.33
2018-10-18T13:48:06.498Z,24.30
2018-10-18T13:50:32.734Z,24.28
2018-10-18T13:52:59.065Z,24.27
2018-10-18T13:55:25.394Z,24.23
2018-10-18T13:57:51.729Z,24.23
2018-10-18T14:00:18.149Z,24.19
2018-10-18T14:02:44.366Z,24.17
2018-10-18T14:05:10.786Z,24.08
2018-10-18T14:07:37.050Z,24.02
2018-10-18T14:10:03.366Z,23.87
2018-10-18T14:12:29.691Z,23.84
2018-10-18T14:14:56.043Z,23.82
2018-10-18T14:17:22.529Z,23.86
2018-10-18T14:19:48.738Z,23.77
2018-10-18T14:22:15.055Z,23.71
2018-10-18T14:24:41.383Z,23.72
2018-10-18T14:27:07.707Z,23.68
2018-10-18T14:29:34.024Z,23.66
2018-10-18T14:32:00.400Z,23.67
2018-10-18T14:34:26.772Z,23.67
2018-10-18T14:36:53.104Z,23.67
2018-10-18T14:39:19.431Z,23.68
2018-10-18T14:41:45.750Z,23.66
2018-10-18T14:44:12.129Z,23.71
2018-10-18T14:46:38.382Z,23.68
2018-10-18T14:49:04.693Z,23.71
2018-10-18T14:51:31.069Z,23.71
2018-10-18T14:53:57.361Z,23.70
2018-10-18T14:56:23.691Z,23.71
2018-10-18T14:58:50.024Z,23.69
2018-10-18T15:01:16.348Z,23.68
2018-10-18T15:03:42.723Z,23.69
2018-10-18T15:06:09.056Z,23.68
2018-10-18T15:08:35.378Z,23.67
2018-10-18T15:11:01.722Z,23.65
2018-10-18T15:13:28.015Z,23.65
2018-10-18T15:15:54.361Z,23.61
2018-10-18T15:18:20.731Z,23.62
2018-10-18T15:20:47.097Z,23.57
2018-10-18T15:23:13.473Z,23.57
2018-10-18T15:25:40.119Z,23.55
2018-10-18T15:28:06.110Z,23.53
2018-10-18T15:30:32.470Z,23.50
2018-10-18T15:32:58.763Z,23.49
2018-10-18T15:35:25.078Z,23.47
2018-10-18T15:37:51.439Z,23.42
2018-10-18T15:40:17.719Z,23.38
2018-10-18T15:42:44.039Z,23.34
2018-10-18T15:45:10.401Z,23.33
2018-10-18T15:47:36.757Z,23.30
2018-10-18T15:50:03.019Z,23.28
2018-10-18T15:52:29.345Z,23.25
2018-10-18T15:54:55.670Z,23.21
2018-10-18T15:57:21.998Z,23.16
2018-10-18T15:59:48.314Z,23.15
2018-10-18T16:02:14.649Z,23.13
2018-10-18T16:04:41.011Z,23.14
2018-10-18T16:07:07.308Z,23.10
2018-10-18T16:09:33.634Z,23.08
2018-10-18T16:12:00.017Z,23.01
2018-10-18T16:14:26.419Z,23.06
2018-10-18T16:16:52.761Z,23.02
2018-10-18T16:19:19.079Z,23.01
2018-10-18T16:21:45.432Z,23.00
2018-10-18T16:24:11.794Z,22.98
2018-10-18T16:26:38.138Z,22.96
2018-10-18T16:29:04.459Z,22.90
2018-10-18T16:31:30.780Z,22.87
2018-10-18T16:33:57.191Z,22.84
2018-10-18T16:36:23.423Z,22.80
2018-10-18T16:38:49.752Z,22.76
2018-10-18T16:41:16.410Z,22.70
2018-10-18T16:43:42.438Z,22.64
2018-10-18T16:46:08.888Z,22.64
2018-10-18T16:48:35.108Z,22.64
2018-10-18T16:51:01.465Z,22.56
2018-10-18T16:53:27.768Z,22.53
2018-10-18T16:55:54.129Z,22.51
2018-10-18T16:58:20.431Z,22.49
2018-10-18T17:00:46.762Z,22.48
2018-10-18T17:03:13.083Z,22.45
2018-10-18T17:05:39.413Z,22.34
2018-10-18T17:08:05.796Z,22.25
2018-10-18T17:10:32.072Z,22.27
2018-10-18T17:12:58.406Z,22.27
2018-10-18T17:15:24.743Z,22.33
2018-10-18T17:17:51.104Z,22.35
2018-10-18T17:20:17.558Z,22.36
2018-10-18T17:22:43.762Z,22.33
2018-10-18T17:25:10.125Z,22.31
2018-10-18T17:27:36.455Z,22.31
2018-10-18T17:30:02.778Z,22.28
2018-10-18T17:32:29.092Z,22.27
2018-10-18T17:34:55.431Z,22.25
2018-10-18T17:37:21.927Z,22.24
2018-10-18T17:39:48.305Z,22.21
2018-10-18T17:42:14.696Z,22.18
2018-10-18T17:44:41.009Z,22.16
2018-10-18T17:47:07.318Z,22.13
2018-10-18T17:49:33.726Z,22.11
2018-10-18T17:52:00.062Z,22.08
2018-10-18T17:54:26.335Z,22.05
2018-10-18T17:56:52.714Z,22.03
2018-10-18T17:59:19.037Z,22.00
2018-10-18T18:01:45.382Z,21.93
2018-10-18T18:04:11.735Z,21.91
2018-10-18T18:06:38.208Z,21.90
2018-10-18T18:09:04.389Z,21.88
2018-10-18T18:11:30.750Z,21.82
2018-10-18T18:13:57.085Z,21.82
2018-10-18T18:16:23.413Z,21.80
2018-10-18T18:18:49.802Z,21.78
2018-10-18T18:21:16.135Z,21.75
2018-10-18T18:23:42.469Z,21.68
2018-10-18T18:26:08.823Z,21.63
2018-10-18T18:28:35.155Z,21.62
2018-10-18T18:31:01.508Z,21.56
2018-10-18T18:33:27.866Z,21.54
2018-10-18T18:35:54.193Z,21.56
2018-10-18T18:38:20.513Z,21.53
2018-10-18T18:40:46.854Z,21.51
2018-10-18T18:43:13.188Z,21.48
2018-10-18T18:45:39.910Z,21.44
2018-10-18T18:48:06.198Z,21.42
2018-10-18T18:50:32.519Z,21.36
2018-10-18T18:52:58.877Z,21.36
2018-10-18T18:55:25.155Z,21.33
2018-10-18T18:57:51.474Z,21.30
2018-10-18T19:00:17.860Z,21.26
2018-10-18T19:02:44.159Z,21.15
2018-10-18T19:05:10.475Z,21.21
2018-10-18T19:07:36.831Z,21.19
2018-10-18T19:10:03.168Z,21.16
2018-10-18T19:12:29.492Z,21.12
2018-10-18T19:14:55.863Z,21.07
2018-10-18T19:17:22.189Z,21.02
2018-10-18T19:19:48.529Z,20.98
2018-10-18T19:22:14.901Z,20.93
2018-10-18T19:24:41.244Z,20.90
2018-10-18T19:27:07.576Z,20.86
2018-10-18T19:29:33.895Z,20.84
2018-10-18T19:32:00.242Z,20.82
2018-10-18T19:34:26.584Z,20.80
2018-10-18T19:36:52.917Z,20.76
2018-10-18T19:39:19.290Z,20.75
2018-10-18T19:41:45.614Z,20.73
2018-10-18T19:44:12.035Z,20.69
2018-10-18T19:46:38.447Z,20.66
2018-10-18T19:49:04.740Z,20.63
2018-10-18T19:51:31.076Z,20.61
2018-10-18T19:53:57.409Z,20.60
2018-10-18T19:56:23.745Z,20.57
2018-10-18T19:58:50.086Z,20.52
2018-10-18T20:01:16.445Z,20.49
2018-10-18T20:03:42.785Z,20.45
2018-10-18T20:06:09.121Z,20.41
2018-10-18T20:08:35.457Z,20.40
2018-10-18T20:11:01.808Z,20.40
2018-10-18T20:13:28.130Z,20.40
2018-10-18T20:15:54.510Z,20.38
2018-10-18T20:18:20.852Z,20.32
2018-10-18T20:20:47.169Z,20.34
2018-10-18T20:23:13.497Z,20.28
2018-10-18T20:25:39.939Z,20.28
2018-10-18T20:28:06.122Z,20.22
2018-10-18T20:30:32.480Z,20.20
2018-10-18T20:32:58.865Z,20.18
2018-10-18T20:35:25.174Z,20.14
2018-10-18T20:37:51.487Z,20.12
2018-10-18T20:40:17.792Z,20.11
2018-10-18T20:42:44.137Z,20.10
2018-10-18T20:45:10.537Z,20.09
2018-10-18T20:47:36.893Z,20.06
2018-10-18T20:50:03.118Z,20.05
2018-10-18T20:52:29.508Z,20.04
2018-10-18T20:54:55.808Z,20.03
2018-10-18T20:57:22.136Z,19.96
2018-10-18T20:59:48.463Z,19.98
2018-10-18T21:02:14.823Z,19.99
2018-10-18T21:04:41.164Z,19.96
2018-10-18T21:07:07.491Z,19.95
2018-10-18T21:09:33.888Z,19.92
2018-10-18T21:12:00.244Z,19.90
2018-10-18T21:14:26.546Z,19.90
2018-10-18T21:16:52.902Z,19.89
2018-10-18T21:19:19.198Z,19.87
2018-10-18T21:21:45.614Z,19.85
2018-10-18T21:24:11.855Z,19.84
2018-10-18T21:26:38.180Z,19.81
2018-10-18T21:29:04.562Z,19.80
2018-10-18T21:31:30.881Z,19.79
2018-10-18T21:33:57.318Z,19.77
2018-10-18T21:36:23.578Z,19.77
2018-10-18T21:38:49.893Z,19.75
2018-10-18T21:41:16.227Z,19.72
2018-10-18T21:43:42.561Z,19.68
2018-10-18T21:46:08.889Z,19.70
2018-10-18T21:48:35.214Z,19.66
2018-10-18T21:51:01.600Z,19.64
2018-10-18T21:53:27.873Z,19.61
2018-10-18T21:55:54.197Z,19.58
2018-10-18T21:58:20.562Z,19.58
2018-10-18T22:00:46.905Z,19.56
2018-10-18T22:03:13.318Z,19.56
2018-10-18T22:05:39.572Z,19.53
2018-10-18T22:08:05.885Z,19.49
2018-10-18T22:10:32.217Z,19.47
2018-10-18T22:12:58.558Z,19.42
2018-10-18T22:15:24.923Z,19.38
2018-10-18T22:17:51.207Z,19.35
2018-10-18T22:20:17.534Z,19.31
2018-10-18T22:22:43.841Z,19.27
2018-10-18T22:25:10.155Z,19.25
2018-10-18T22:27:36.498Z,19.16
2018-10-18T22:30:02.840Z,19.19
2018-10-18T22:32:29.141Z,19.19
2018-10-18T22:34:55.484Z,19.18
2018-10-18T22:37:21.836Z,19.17
2018-10-18T22:39:48.093Z,19.16
2018-10-18T22:42:14.445Z,19.14
2018-10-18T22:44:40.812Z,19.12
2018-10-18T22:47:07.186Z,19.09
2018-10-18T22:49:33.482Z,19.05
2018-10-18T22:51:59.786Z,19.00
2018-10-18T22:54:26.133Z,18.98
2018-10-18T22:56:52.457Z,18.97
2018-10-18T22:59:18.828Z,18.95
2018-10-18T23:01:45.129Z,18.91
2018-10-18T23:04:11.497Z,18.85
2018-10-18T23:06:37.807Z,18.85
2018-10-18T23:09:04.156Z,18.80
2018-10-18T23:11:30.511Z,18.79
2018-10-18T23:13:56.808Z,18.73
2018-10-18T23:16:23.143Z,18.75
2018-10-18T23:18:49.439Z,18.73
2018-10-18T23:21:15.810Z,18.71
2018-10-18T23:23:42.096Z,18.67
2018-10-18T23:26:08.423Z,18.63
2018-10-18T23:28:34.754Z,18.59
2018-10-18T23:31:01.059Z,18.57
2018-10-18T23:33:27.363Z,18.54
2018-10-18T23:35:53.675Z,18.52
2018-10-18T23:38:19.985Z,18.47
2018-10-18T23:40:46.314Z,18.46
2018-10-18T23:43:12.629Z,18.47
2018-10-18T23:45:38.963Z,18.46
2018-10-18T23:48:05.295Z,18.41
2018-10-18T23:50:31.593Z,18.39
2018-10-18T23:52:57.934Z,18.37
2018-10-18T23:55:24.239Z,18.36
2018-10-18T23:57:50.582Z,18.36
